createdAt,value
2018-03-24T00:00:47.607Z,66.85
2018-03-24T00:01:48.084Z,67.16
2018-03-24T00:02:48.554Z,67.44
2018-03-24T00:03:49.027Z,67.78
2018-03-24T00:04:49.499Z,68.08
2018-03-24T00:05:49.968Z,68.31
2018-03-24T00:06:50.441Z,68.49
2018-03-24T00:07:50.903Z,68.85
2018-03-24T00:08:51.379Z,68.90
2018-03-24T00:09:51.855Z,69.03
2018-03-24T00:10:52.321Z,69.26
2018-03-24T00:13:04.743Z,69.30
2018-03-24T00:14:54.205Z,69.00
2018-03-24T00:15:54.677Z,68.90
2018-03-24T00:16:55.147Z,68.71
2018-03-24T00:17:55.620Z,68.50
2018-03-24T00:18:56.081Z,68.30
2018-03-24T00:19:56.563Z,68.25
2018-03-24T00:20:57.029Z,68.09
2018-03-24T00:21:57.500Z,67.96
2018-03-24T00:22:58.020Z,67.70
2018-03-24T00:23:58.440Z,67.60
2018-03-24T00:24:58.911Z,67.57
2018-03-24T00:25:59.383Z,67.64
2018-03-24T00:26:59.852Z,67.40
2018-03-24T00:28:00.322Z,67.22
2018-03-24T00:29:00.797Z,67.04
2018-03-24T00:30:01.260Z,66.80
2018-03-24T00:31:01.733Z,66.80
2018-03-24T00:32:02.205Z,66.53
2018-03-24T00:33:02.675Z,66.92
2018-03-24T00:34:03.204Z,66.82
2018-03-24T00:35:03.619Z,67.13
2018-03-24T00:36:04.087Z,67.28
2018-03-24T00:37:04.556Z,67.48
2018-03-24T00:38:05.078Z,67.48
2018-03-24T00:39:05.497Z,67.24
2018-03-24T00:40:05.969Z,67.09
2018-03-24T00:41:06.433Z,67.16
2018-03-24T00:42:06.909Z,67.24
2018-03-24T00:43:07.384Z,67.24
2018-03-24T00:45:08.321Z,67.29
2018-03-24T00:47:09.260Z,67.25
2018-03-24T00:48:09.726Z,67.04
2018-03-24T00:49:10.201Z,67.31
2018-03-24T00:50:10.675Z,67.48
2018-03-24T00:51:11.141Z,67.92
2018-03-24T00:52:11.949Z,68.05
2018-03-24T00:53:23.815Z,68.27
2018-03-24T00:54:12.553Z,68.22
2018-03-24T00:55:13.022Z,68.48
2018-03-24T00:56:13.492Z,68.35
2018-03-24T00:57:13.967Z,68.37
2018-03-24T00:58:14.485Z,68.35
2018-03-24T00:59:14.898Z,68.55
2018-03-24T01:00:15.378Z,68.73
2018-03-24T01:01:15.843Z,68.91
2018-03-24T01:02:16.313Z,69.14
2018-03-24T01:03:16.779Z,69.29
2018-03-24T01:04:17.255Z,69.51
2018-03-24T01:05:17.765Z,69.62
2018-03-24T01:06:18.198Z,69.72
2018-03-24T01:07:18.667Z,69.79
2018-03-24T01:08:19.187Z,69.92
2018-03-24T01:09:19.604Z,69.87
2018-03-24T01:10:20.074Z,69.97
2018-03-24T01:11:20.543Z,69.99
2018-03-24T01:13:21.484Z,69.77
2018-03-24T01:14:21.950Z,69.84
2018-03-24T01:15:22.765Z,69.76
2018-03-24T01:16:22.894Z,69.92
2018-03-24T01:17:23.366Z,70.05
2018-03-24T01:18:23.834Z,69.99
2018-03-24T01:19:24.644Z,69.91
2018-03-24T01:20:24.774Z,70.12
2018-03-24T01:21:25.240Z,70.07
2018-03-24T01:22:25.714Z,69.94
2018-03-24T01:23:26.525Z,69.61
2018-03-24T01:24:26.656Z,69.23
2018-03-24T01:25:27.120Z,69.00
2018-03-24T01:26:27.596Z,68.51
2018-03-24T01:27:28.066Z,68.02
2018-03-24T01:28:28.533Z,67.65
2018-03-24T01:29:29.003Z,67.26
2018-03-24T01:30:29.474Z,67.00
2018-03-24T01:31:29.943Z,66.89
2018-03-24T01:32:30.414Z,66.65
2018-03-24T01:33:30.884Z,66.68
2018-03-24T01:34:31.354Z,66.57
2018-03-24T01:35:31.822Z,66.46
2018-03-24T01:36:32.292Z,66.41
2018-03-24T01:37:32.764Z,66.41
2018-03-24T01:38:33.232Z,66.30
2018-03-24T01:39:33.706Z,66.08
2018-03-24T01:40:34.172Z,66.03
2018-03-24T01:41:34.646Z,65.95
2018-03-24T01:42:35.113Z,65.79
2018-03-24T01:43:35.628Z,65.76
2018-03-24T01:44:36.056Z,65.57
2018-03-24T01:45:36.521Z,65.62
2018-03-24T01:46:36.993Z,65.51
2018-03-24T01:47:37.461Z,65.40
2018-03-24T01:48:37.932Z,65.32
2018-03-24T01:49:38.401Z,65.22
2018-03-24T01:52:40.152Z,64.87
2018-03-24T01:53:40.328Z,64.58
2018-03-24T01:54:40.743Z,64.54
2018-03-24T01:55:41.222Z,64.41
2018-03-24T01:56:41.688Z,64.33
2018-03-24T01:57:42.158Z,64.24
2018-03-24T01:58:42.628Z,64.30
2018-03-24T01:59:43.097Z,64.32
2018-03-24T02:00:43.572Z,64.08
2018-03-24T02:01:44.034Z,63.86
2018-03-24T02:02:44.507Z,63.83
2018-03-24T02:03:44.974Z,63.83
2018-03-24T02:04:45.448Z,63.80
2018-03-24T02:05:45.909Z,63.64
2018-03-24T02:06:46.382Z,63.53
2018-03-24T02:07:46.852Z,63.40
2018-03-24T02:08:47.322Z,63.39
2018-03-24T02:09:47.797Z,63.37
2018-03-24T02:10:48.261Z,63.29
2018-03-24T02:11:48.738Z,63.34
2018-03-24T02:12:49.535Z,63.39
2018-03-24T02:13:50.060Z,63.30
2018-03-24T02:14:50.138Z,63.25
2018-03-24T02:15:50.605Z,63.09
2018-03-24T02:16:51.074Z,63.22
2018-03-24T02:17:51.546Z,63.16
2018-03-24T02:18:52.014Z,63.08
2018-03-24T02:19:52.484Z,62.87
2018-03-24T02:20:52.953Z,62.73
2018-03-24T02:21:53.427Z,62.73
2018-03-24T02:22:53.891Z,62.73
2018-03-24T02:23:54.405Z,62.70
2018-03-24T02:24:54.828Z,62.67
2018-03-24T02:25:55.298Z,62.58
2018-03-24T02:26:55.767Z,62.50
2018-03-24T02:27:56.229Z,62.55
2018-03-24T02:28:56.757Z,62.55
2018-03-24T02:29:57.174Z,62.58
2018-03-24T02:30:57.646Z,62.31
2018-03-24T02:31:58.113Z,62.36
2018-03-24T02:32:58.581Z,62.30
2018-03-24T02:33:59.269Z,62.33
2018-03-24T02:34:59.522Z,62.33
2018-03-24T02:35:59.988Z,62.43
2018-03-24T02:37:00.458Z,62.38
2018-03-24T02:38:00.925Z,62.30
2018-03-24T02:39:01.391Z,62.37
2018-03-24T02:40:01.866Z,62.24
2018-03-24T02:41:02.346Z,62.21
2018-03-24T02:42:02.802Z,62.13
2018-03-24T02:44:03.735Z,61.98
2018-03-24T02:45:04.207Z,62.07
2018-03-24T02:46:04.679Z,62.09
2018-03-24T02:47:05.151Z,62.17
2018-03-24T02:48:05.616Z,62.20
2018-03-24T02:49:06.134Z,62.14
2018-03-24T02:50:06.893Z,62.19
2018-03-24T02:51:07.055Z,62.16
2018-03-24T02:52:07.829Z,62.19
2018-03-24T02:53:07.961Z,62.35
2018-03-24T02:54:08.427Z,62.48
2018-03-24T02:55:08.895Z,62.48
2018-03-24T02:56:09.703Z,62.45
2018-03-24T02:57:09.833Z,62.50
2018-03-24T02:58:10.301Z,62.55
2018-03-24T03:00:11.239Z,62.55
2018-03-24T03:01:11.706Z,62.49
2018-03-24T03:02:12.170Z,62.52
2018-03-24T03:03:12.642Z,62.73
2018-03-24T03:06:14.053Z,62.65
2018-03-24T03:07:14.520Z,62.78
2018-03-24T03:08:14.980Z,62.48
2018-03-24T03:09:15.454Z,62.43
2018-03-24T03:10:15.923Z,62.45
2018-03-24T03:11:16.733Z,62.43
2018-03-24T03:12:16.857Z,62.40
2018-03-24T03:13:17.380Z,62.42
2018-03-24T03:14:17.799Z,62.45
2018-03-24T03:15:18.267Z,62.47
2018-03-24T03:17:19.203Z,62.55
2018-03-24T03:18:19.666Z,62.58
2018-03-24T03:19:20.141Z,62.58
2018-03-24T03:20:31.943Z,62.58
2018-03-24T03:21:21.077Z,62.63
2018-03-24T03:22:21.549Z,62.49
2018-03-24T03:23:22.014Z,62.44
2018-03-24T03:24:22.482Z,62.30
2018-03-24T03:25:22.953Z,62.28
2018-03-24T03:26:23.421Z,61.98
2018-03-24T03:27:23.887Z,62.19
2018-03-24T03:28:24.355Z,62.14
2018-03-24T03:29:24.821Z,62.08
2018-03-24T03:30:25.298Z,62.03
2018-03-24T03:31:25.762Z,62.03
2018-03-24T03:32:26.230Z,62.08
2018-03-24T03:33:26.695Z,62.08
2018-03-24T03:36:28.103Z,63.09
2018-03-24T03:37:28.915Z,63.33
2018-03-24T03:38:29.047Z,63.54
2018-03-24T03:39:29.510Z,63.41
2018-03-24T03:40:29.977Z,63.57
2018-03-24T03:41:30.448Z,63.70
2018-03-24T03:42:30.915Z,63.73
2018-03-24T03:43:31.379Z,63.75
2018-03-24T03:44:31.849Z,63.62
2018-03-24T03:45:32.325Z,64.20
2018-03-24T03:46:32.787Z,64.25
2018-03-24T03:47:33.256Z,64.25
2018-03-24T03:48:33.724Z,64.41
2018-03-24T03:49:34.193Z,64.46
2018-03-24T03:50:34.662Z,64.65
2018-03-24T03:51:35.471Z,64.62
2018-03-24T03:52:35.593Z,64.46
2018-03-24T03:53:36.067Z,64.88
2018-03-24T03:54:36.572Z,64.91
2018-03-24T03:55:37.004Z,64.91
2018-03-24T03:56:37.469Z,64.85
2018-03-24T03:57:37.934Z,65.25
2018-03-24T03:58:38.409Z,65.12
2018-03-24T03:59:38.878Z,65.06
2018-03-24T04:00:39.346Z,65.27
2018-03-24T04:02:40.278Z,65.59
2018-03-24T04:03:40.753Z,65.77
2018-03-24T04:04:41.218Z,65.46
2018-03-24T04:05:41.685Z,65.56
2018-03-24T04:06:42.153Z,65.59
2018-03-24T04:07:42.626Z,65.48
2018-03-24T04:08:43.094Z,65.85
2018-03-24T04:09:43.560Z,65.92
2018-03-24T04:10:44.035Z,65.71
2018-03-24T04:11:44.495Z,65.74
2018-03-24T04:12:44.971Z,65.56
2018-03-24T04:13:45.435Z,65.48
2018-03-24T04:15:46.373Z,65.58
2018-03-24T04:16:46.840Z,65.58
2018-03-24T04:17:47.309Z,65.74
2018-03-24T04:18:47.773Z,66.10
2018-03-24T04:19:48.250Z,66.18
2018-03-24T04:20:48.764Z,66.23
2018-03-24T04:21:49.184Z,66.08
2018-03-24T04:23:50.120Z,66.15
2018-03-24T04:24:50.639Z,66.31
2018-03-24T04:25:51.057Z,66.47
2018-03-24T04:26:51.525Z,66.44
2018-03-24T04:27:52.000Z,66.44
2018-03-24T04:28:52.468Z,66.44
2018-03-24T04:29:52.932Z,66.52
2018-03-24T04:30:53.451Z,66.21
2018-03-24T04:31:53.867Z,66.18
2018-03-24T04:32:54.368Z,66.26
2018-03-24T04:33:54.804Z,66.13
2018-03-24T04:34:55.273Z,66.03
2018-03-24T04:35:55.741Z,66.13
2018-03-24T04:36:56.211Z,66.28
2018-03-24T04:37:56.673Z,66.36
2018-03-24T04:38:57.147Z,66.31
2018-03-24T04:39:57.615Z,66.38
2018-03-24T04:40:58.083Z,66.28
2018-03-24T04:41:58.552Z,66.25
2018-03-24T04:42:59.021Z,66.07
2018-03-24T04:43:59.490Z,66.20
2018-03-24T04:44:59.957Z,66.33
2018-03-24T04:47:00.893Z,66.46
2018-03-24T04:48:01.718Z,66.59
2018-03-24T04:49:01.835Z,66.56
2018-03-24T04:50:02.297Z,66.57
2018-03-24T04:51:02.768Z,66.43
2018-03-24T04:52:03.238Z,66.36
2018-03-24T04:53:03.704Z,66.17
2018-03-24T04:54:04.180Z,66.12
2018-03-24T04:55:04.642Z,66.07
2018-03-24T04:56:05.160Z,65.99
2018-03-24T04:57:05.578Z,65.96
2018-03-24T04:58:06.046Z,65.89
2018-03-24T04:59:06.512Z,66.04
2018-03-24T05:00:06.986Z,65.94
2018-03-24T05:01:07.452Z,65.91
2018-03-24T05:02:07.922Z,65.93
2018-03-24T05:03:08.389Z,66.17
2018-03-24T05:04:08.859Z,66.07
2018-03-24T05:05:09.326Z,66.14
2018-03-24T05:06:09.845Z,66.32
2018-03-24T05:08:11.074Z,66.29
2018-03-24T05:09:11.199Z,66.19
2018-03-24T05:10:11.664Z,66.29
2018-03-24T05:11:12.187Z,66.32
2018-03-24T05:14:13.538Z,66.25
2018-03-24T05:15:14.010Z,66.06
2018-03-24T05:16:14.480Z,65.91
2018-03-24T05:17:14.946Z,65.97
2018-03-24T05:18:15.415Z,65.81
2018-03-24T05:19:15.884Z,65.70
2018-03-24T05:22:17.290Z,65.53
2018-03-24T05:23:17.760Z,65.46
2018-03-24T05:24:18.226Z,65.51
2018-03-24T05:25:18.697Z,65.59
2018-03-24T05:26:19.302Z,65.81
2018-03-24T05:27:19.637Z,65.84
2018-03-24T05:28:20.101Z,65.94
2018-03-24T05:29:20.570Z,66.08
2018-03-24T05:31:21.558Z,66.41
2018-03-24T05:32:21.981Z,66.67
2018-03-24T05:33:22.443Z,66.89
2018-03-24T05:34:22.908Z,67.08
2018-03-24T05:35:23.383Z,67.29
2018-03-24T05:36:23.902Z,67.56
2018-03-24T05:37:24.320Z,67.75
2018-03-24T05:38:24.782Z,67.97
2018-03-24T05:39:25.258Z,68.26
2018-03-24T05:40:25.764Z,68.14
2018-03-24T05:41:26.197Z,68.22
2018-03-24T05:43:27.130Z,68.45
2018-03-24T05:44:27.603Z,68.38
2018-03-24T05:45:28.065Z,68.75
2018-03-24T05:46:40.020Z,68.92
2018-03-24T05:47:29.355Z,69.06
2018-03-24T05:48:29.525Z,69.22
2018-03-24T05:50:30.419Z,69.60
2018-03-24T05:51:30.887Z,69.54
2018-03-24T05:52:31.359Z,69.58
2018-03-24T05:53:31.824Z,69.56
2018-03-24T05:54:32.296Z,69.67
2018-03-24T05:55:32.765Z,69.57
2018-03-24T05:56:33.286Z,69.98
2018-03-24T05:58:34.167Z,69.61
2018-03-24T05:59:34.643Z,69.31
2018-03-24T06:00:35.118Z,69.38
2018-03-24T06:01:35.582Z,69.47
2018-03-24T06:02:36.053Z,69.74
2018-03-24T06:03:36.523Z,69.10
2018-03-24T06:04:36.995Z,69.42
2018-03-24T06:05:37.461Z,69.07
2018-03-24T06:06:37.931Z,69.09
2018-03-24T06:07:38.402Z,68.95
2018-03-24T06:09:39.345Z,69.35
2018-03-24T06:10:39.807Z,69.39
2018-03-24T06:11:40.286Z,69.07
2018-03-24T06:12:40.754Z,68.88
2018-03-24T06:13:41.224Z,68.72
2018-03-24T06:14:41.695Z,68.66
2018-03-24T06:16:42.686Z,68.23
2018-03-24T06:17:43.105Z,68.87
2018-03-24T06:18:43.576Z,68.27
2018-03-24T06:19:44.048Z,67.87
2018-03-24T06:20:44.519Z,67.66
2018-03-24T06:21:45.039Z,67.75
2018-03-24T06:22:45.461Z,67.59
2018-03-24T06:23:45.931Z,67.32
2018-03-24T06:24:46.406Z,67.44
2018-03-24T06:25:46.872Z,67.04
2018-03-24T06:26:47.396Z,67.32
2018-03-24T06:27:47.816Z,66.50
2018-03-24T06:28:48.288Z,66.12
2018-03-24T06:29:48.753Z,65.37
2018-03-24T06:30:49.232Z,65.17
2018-03-24T06:31:49.702Z,64.76
2018-03-24T06:32:50.174Z,64.48
2018-03-24T06:33:50.644Z,64.10
2018-03-24T06:34:51.120Z,64.01
2018-03-24T06:35:51.589Z,63.65
2018-03-24T06:36:52.060Z,63.37
2018-03-24T06:37:52.533Z,63.00
2018-03-24T06:38:53.005Z,62.80
2018-03-24T06:39:53.477Z,62.30
2018-03-24T06:40:53.949Z,62.40
2018-03-24T06:41:54.424Z,62.25
2018-03-24T06:42:54.898Z,61.94
2018-03-24T06:43:55.365Z,61.68
2018-03-24T06:44:55.872Z,61.61
2018-03-24T06:45:56.319Z,61.27
2018-03-24T06:46:56.786Z,60.95
2018-03-24T06:48:57.729Z,60.74
2018-03-24T06:49:58.197Z,60.55
2018-03-24T06:50:58.677Z,60.35
2018-03-24T06:51:59.200Z,60.31
2018-03-24T06:52:59.622Z,60.15
2018-03-24T06:54:00.093Z,60.03
2018-03-24T06:55:00.569Z,59.76
2018-03-24T06:56:01.043Z,59.73
2018-03-24T06:57:01.515Z,59.35
2018-03-24T06:58:01.982Z,59.34
2018-03-24T06:59:02.463Z,59.18
2018-03-24T07:01:03.410Z,58.88
2018-03-24T07:02:03.883Z,58.89
2018-03-24T07:03:04.356Z,58.62
2018-03-24T07:04:04.826Z,58.58
2018-03-24T07:05:05.305Z,58.08
2018-03-24T07:06:05.779Z,57.90
2018-03-24T07:07:06.256Z,57.77
2018-03-24T07:08:06.727Z,57.50
2018-03-24T07:11:08.147Z,57.14
2018-03-24T07:12:08.626Z,56.86
2018-03-24T07:13:09.107Z,56.65
2018-03-24T07:14:09.916Z,56.63
2018-03-24T07:15:10.050Z,56.41
2018-03-24T07:16:10.527Z,56.05
2018-03-24T07:17:11.001Z,56.07
2018-03-24T07:18:11.474Z,55.99
2018-03-24T07:19:11.950Z,55.69
2018-03-24T07:20:12.425Z,55.73
2018-03-24T07:22:25.167Z,55.47
2018-03-24T07:23:13.852Z,55.19
2018-03-24T07:24:14.323Z,55.17
2018-03-24T07:25:14.803Z,54.83
2018-03-24T07:26:15.283Z,54.69
2018-03-24T07:27:15.753Z,54.62
2018-03-24T07:28:16.222Z,54.60
2018-03-24T07:29:16.704Z,54.47
2018-03-24T07:30:17.179Z,54.48
2018-03-24T07:31:17.654Z,54.43
2018-03-24T07:32:18.179Z,54.18
2018-03-24T07:33:18.603Z,54.07
2018-03-24T07:34:19.072Z,54.02
2018-03-24T07:36:20.032Z,53.99
2018-03-24T07:37:20.553Z,54.09
2018-03-24T07:38:20.977Z,53.77
2018-03-24T07:39:21.454Z,53.72
2018-03-24T07:40:21.922Z,53.73
2018-03-24T07:41:22.391Z,53.53
2018-03-24T07:42:22.920Z,53.51
2018-03-24T07:43:23.343Z,53.35
2018-03-24T07:44:23.810Z,53.32
2018-03-24T07:45:24.288Z,53.13
2018-03-24T07:47:25.233Z,53.00
2018-03-24T07:48:25.712Z,52.95
2018-03-24T07:49:26.177Z,53.02
2018-03-24T07:50:26.649Z,52.84
2018-03-24T07:51:27.122Z,52.86
2018-03-24T07:52:27.648Z,53.11
2018-03-24T07:53:28.065Z,52.88
2018-03-24T07:54:28.532Z,53.13
2018-03-24T07:55:29.015Z,53.08
2018-03-24T07:56:29.481Z,52.91
2018-03-24T07:57:30.156Z,52.65
2018-03-24T07:58:30.424Z,53.20
2018-03-24T07:59:30.892Z,52.88
2018-03-24T08:00:31.369Z,53.37
2018-03-24T08:01:31.843Z,53.29
2018-03-24T08:02:32.313Z,53.21
2018-03-24T08:04:33.258Z,53.57
2018-03-24T08:05:33.732Z,53.31
2018-03-24T08:06:34.198Z,53.50
2018-03-24T08:07:34.725Z,53.72
2018-03-24T08:08:35.151Z,53.85
2018-03-24T08:09:35.976Z,54.07
2018-03-24T08:10:36.100Z,54.02
2018-03-24T08:11:36.567Z,53.38
2018-03-24T08:12:37.087Z,53.69
2018-03-24T08:13:37.514Z,53.97
2018-03-24T08:14:37.988Z,53.62
2018-03-24T08:15:38.461Z,53.43
2018-03-24T08:16:38.933Z,53.77
2018-03-24T08:17:39.408Z,53.21
2018-03-24T08:18:39.876Z,53.43
2018-03-24T08:19:40.356Z,53.77
2018-03-24T08:20:40.835Z,53.40
2018-03-24T08:21:41.307Z,53.23
2018-03-24T08:22:41.779Z,53.09
2018-03-24T08:23:42.248Z,53.16
2018-03-24T08:24:42.731Z,52.81
2018-03-24T08:25:43.204Z,52.61
2018-03-24T08:26:43.678Z,52.41
2018-03-24T08:27:44.205Z,51.90
2018-03-24T08:28:44.629Z,52.01
2018-03-24T08:29:45.105Z,51.68
2018-03-24T08:30:45.574Z,51.72
2018-03-24T08:31:46.056Z,51.68
2018-03-24T08:32:46.532Z,51.44
2018-03-24T08:33:47.009Z,51.15
2018-03-24T08:34:47.483Z,51.19
2018-03-24T08:35:47.955Z,50.62
2018-03-24T08:36:48.435Z,50.88
2018-03-24T08:37:48.962Z,50.27
2018-03-24T08:38:49.389Z,50.04
2018-03-24T08:39:49.862Z,49.83
2018-03-24T08:40:50.347Z,49.93
2018-03-24T08:41:50.814Z,49.61
2018-03-24T08:42:51.286Z,49.15
2018-03-24T08:43:51.767Z,49.10
2018-03-24T08:44:52.237Z,49.11
2018-03-24T08:45:52.718Z,48.81
2018-03-24T08:46:53.193Z,48.73
2018-03-24T08:48:54.146Z,48.35
2018-03-24T08:49:54.617Z,48.36
2018-03-24T08:50:55.294Z,47.99
2018-03-24T08:51:55.561Z,47.85
2018-03-24T08:52:56.090Z,47.70
2018-03-24T08:55:57.462Z,47.10
2018-03-24T08:56:57.935Z,46.80
2018-03-24T08:57:58.408Z,46.87
2018-03-24T08:58:58.882Z,46.37
2018-03-24T08:59:59.351Z,46.19
2018-03-24T09:00:59.828Z,45.95
2018-03-24T09:02:00.301Z,45.86
2018-03-24T09:05:01.718Z,45.25
2018-03-24T09:07:02.663Z,45.02
2018-03-24T09:08:03.187Z,44.87
2018-03-24T09:09:03.608Z,44.59
2018-03-24T09:10:04.080Z,44.44
2018-03-24T09:11:04.550Z,44.28
2018-03-24T09:12:05.024Z,44.23
2018-03-24T09:13:05.542Z,43.98
2018-03-24T09:14:05.969Z,43.96
2018-03-24T09:15:06.472Z,43.77
2018-03-24T09:17:07.389Z,43.53
2018-03-24T09:18:07.908Z,43.57
2018-03-24T09:19:08.329Z,43.52
2018-03-24T09:20:08.801Z,43.33
2018-03-24T09:21:09.276Z,43.18
2018-03-24T09:22:09.800Z,42.77
2018-03-24T09:23:10.221Z,42.68
2018-03-24T09:24:10.697Z,42.33
2018-03-24T09:25:11.170Z,42.60
2018-03-24T09:26:11.641Z,42.25
2018-03-24T09:27:12.109Z,42.26
2018-03-24T09:28:12.594Z,42.04
2018-03-24T09:29:13.064Z,41.95
2018-03-24T09:30:13.537Z,41.89
2018-03-24T09:31:14.012Z,41.51
2018-03-24T09:32:14.487Z,41.26
2018-03-24T09:33:26.295Z,41.26
2018-03-24T09:34:15.437Z,41.08
2018-03-24T09:35:15.915Z,41.02
2018-03-24T09:36:16.390Z,40.90
2018-03-24T09:37:16.857Z,40.58
2018-03-24T09:38:17.391Z,40.45
2018-03-24T09:39:17.813Z,40.26
2018-03-24T09:40:18.289Z,40.07
2018-03-24T09:41:18.760Z,39.82
2018-03-24T09:42:19.242Z,39.63
2018-03-24T09:43:19.717Z,39.43
2018-03-24T09:44:20.193Z,39.18
2018-03-24T09:45:20.671Z,39.09
2018-03-24T09:46:21.148Z,38.79
2018-03-24T09:47:21.624Z,38.67
2018-03-24T09:48:22.150Z,38.67
2018-03-24T09:49:22.575Z,38.42
2018-03-24T09:50:23.053Z,38.09
2018-03-24T09:51:23.528Z,38.10
2018-03-24T09:52:24.005Z,37.80
2018-03-24T09:53:24.482Z,37.74
2018-03-24T09:54:24.989Z,37.51
2018-03-24T09:55:25.435Z,37.45
2018-03-24T09:56:25.905Z,37.12
2018-03-24T09:57:26.385Z,36.99
2018-03-24T09:58:26.861Z,36.86
2018-03-24T09:59:27.340Z,36.67
2018-03-24T10:00:27.808Z,36.60
2018-03-24T10:02:28.764Z,36.41
2018-03-24T10:03:29.286Z,36.28
2018-03-24T10:04:29.712Z,36.22
2018-03-24T10:06:30.661Z,35.83
2018-03-24T10:07:31.132Z,36.10
2018-03-24T10:08:43.293Z,35.84
2018-03-24T10:09:32.084Z,36.05
2018-03-24T10:10:32.558Z,35.85
2018-03-24T10:11:33.030Z,35.79
2018-03-24T10:12:33.508Z,35.79
2018-03-24T10:14:34.448Z,35.39
2018-03-24T10:15:34.925Z,35.54
2018-03-24T10:16:35.398Z,35.34
2018-03-24T10:17:35.873Z,35.65
2018-03-24T10:18:36.340Z,35.35
2018-03-24T10:19:36.816Z,35.22
2018-03-24T10:20:37.289Z,35.22
2018-03-24T10:21:37.763Z,34.68
2018-03-24T10:22:38.235Z,34.75
2018-03-24T10:23:38.707Z,34.76
2018-03-24T10:24:39.180Z,34.42
2018-03-24T10:25:39.652Z,34.49
2018-03-24T10:26:40.123Z,34.02
2018-03-24T10:27:40.596Z,33.92
2018-03-24T10:28:41.070Z,33.92
2018-03-24T10:29:41.542Z,33.75
2018-03-24T10:30:42.014Z,33.69
2018-03-24T10:31:42.488Z,33.76
2018-03-24T10:33:43.482Z,33.57
2018-03-24T10:34:43.908Z,33.36
2018-03-24T10:35:44.380Z,33.37
2018-03-24T10:36:44.854Z,33.20
2018-03-24T10:37:45.324Z,33.24
2018-03-24T10:38:45.906Z,33.11
2018-03-24T10:39:46.278Z,33.11
2018-03-24T10:40:46.751Z,32.98
2018-03-24T10:41:47.226Z,32.98
2018-03-24T10:42:47.700Z,32.71
2018-03-24T10:44:48.646Z,32.44
2018-03-24T10:45:49.126Z,32.51
2018-03-24T10:46:49.604Z,32.38
2018-03-24T10:47:50.279Z,32.31
2018-03-24T10:48:50.551Z,32.32
2018-03-24T10:49:51.025Z,32.42
2018-03-24T10:50:51.506Z,32.18
2018-03-24T10:51:51.981Z,32.15
2018-03-24T10:53:52.931Z,32.22
2018-03-24T10:54:53.413Z,32.02
2018-03-24T10:55:53.888Z,32.12
2018-03-24T10:57:54.846Z,31.98
2018-03-24T10:58:55.320Z,31.92
2018-03-24T10:59:55.794Z,31.88
2018-03-24T11:00:56.272Z,32.02
2018-03-24T11:01:56.748Z,31.91
2018-03-24T11:02:57.225Z,31.77
2018-03-24T11:03:57.755Z,31.91
2018-03-24T11:04:58.178Z,31.87
2018-03-24T11:05:58.655Z,32.04
2018-03-24T11:06:59.329Z,32.11
2018-03-24T11:07:59.606Z,32.03
2018-03-24T11:09:00.085Z,32.09
2018-03-24T11:10:00.560Z,32.47
2018-03-24T11:11:01.034Z,32.57
2018-03-24T11:12:01.512Z,32.56
2018-03-24T11:13:01.986Z,32.62
2018-03-24T11:14:02.511Z,32.96
2018-03-24T11:15:02.938Z,33.09
2018-03-24T11:17:03.886Z,33.48
2018-03-24T11:18:04.364Z,33.40
2018-03-24T11:19:16.373Z,33.67
2018-03-24T11:20:05.308Z,34.00
2018-03-24T11:21:05.791Z,34.20
2018-03-24T11:22:06.258Z,34.32
2018-03-24T11:23:06.737Z,34.65
2018-03-24T11:24:07.202Z,34.78
2018-03-24T11:25:07.680Z,35.04
2018-03-24T11:26:08.156Z,35.23
2018-03-24T11:27:08.627Z,35.22
2018-03-24T11:28:09.105Z,35.41
2018-03-24T11:30:10.053Z,37.15
2018-03-24T11:31:10.521Z,37.17
2018-03-24T11:32:10.994Z,37.26
2018-03-24T11:33:11.467Z,37.18
2018-03-24T11:34:11.942Z,37.44
2018-03-24T11:35:24.398Z,37.53
2018-03-24T11:36:12.885Z,37.51
2018-03-24T11:37:13.358Z,37.74
2018-03-24T11:38:13.829Z,38.26
2018-03-24T11:39:14.303Z,38.79
2018-03-24T11:40:14.824Z,39.08
2018-03-24T11:41:15.247Z,39.40
2018-03-24T11:42:15.722Z,39.62
2018-03-24T11:43:16.193Z,39.91
2018-03-24T11:44:16.656Z,39.94
2018-03-24T11:45:17.184Z,40.20
2018-03-24T11:47:18.074Z,40.64
2018-03-24T11:49:19.026Z,40.83
2018-03-24T11:50:19.498Z,40.69
2018-03-24T11:51:19.971Z,40.81
2018-03-24T11:52:20.443Z,41.20
2018-03-24T11:53:20.918Z,41.19
2018-03-24T11:54:21.392Z,41.19
2018-03-24T11:55:21.864Z,41.18
2018-03-24T11:56:22.337Z,41.31
2018-03-24T11:57:22.813Z,41.44
2018-03-24T11:58:23.282Z,41.63
2018-03-24T11:59:23.768Z,41.79
2018-03-24T12:00:24.235Z,41.81
2018-03-24T12:01:24.706Z,42.01
2018-03-24T12:02:25.186Z,42.30
2018-03-24T12:03:25.661Z,42.33
2018-03-24T12:04:26.341Z,42.45
2018-03-24T12:05:26.609Z,42.58
2018-03-24T12:06:27.087Z,42.70
2018-03-24T12:07:27.563Z,42.70
2018-03-24T12:08:28.038Z,42.79
2018-03-24T12:09:28.516Z,43.05
2018-03-24T12:10:28.991Z,43.37
2018-03-24T12:11:29.467Z,43.53
2018-03-24T12:12:29.944Z,43.72
2018-03-24T12:13:30.421Z,43.72
2018-03-24T12:14:30.899Z,44.04
2018-03-24T12:15:31.370Z,44.62
2018-03-24T12:18:32.800Z,45.21
2018-03-24T12:19:33.280Z,45.31
2018-03-24T12:21:34.234Z,45.50
2018-03-24T12:22:34.709Z,45.65
2018-03-24T12:23:35.186Z,45.87
2018-03-24T12:24:35.661Z,45.84
2018-03-24T12:25:36.133Z,45.99
2018-03-24T12:27:37.087Z,46.31
2018-03-24T12:28:37.562Z,46.75
2018-03-24T12:29:38.038Z,46.78
2018-03-24T12:30:38.512Z,47.09
2018-03-24T12:32:39.462Z,47.18
2018-03-24T12:33:39.938Z,47.46
2018-03-24T12:34:40.415Z,47.46
2018-03-24T12:35:40.885Z,47.68
2018-03-24T12:37:41.883Z,47.95
2018-03-24T12:39:42.779Z,47.95
2018-03-24T12:40:43.253Z,48.10
2018-03-24T12:41:43.725Z,48.29
2018-03-24T12:43:44.668Z,48.66
2018-03-24T12:44:45.145Z,48.53
2018-03-24T12:45:45.616Z,48.93
2018-03-24T12:46:46.090Z,49.37
2018-03-24T12:47:46.612Z,49.86
2018-03-24T12:48:47.029Z,50.36
2018-03-24T12:49:47.505Z,50.73
2018-03-24T12:50:47.979Z,51.03
2018-03-24T12:51:48.451Z,51.25
2018-03-24T12:52:48.976Z,51.55
2018-03-24T12:53:49.395Z,51.80
2018-03-24T12:54:49.866Z,52.16
2018-03-24T12:55:50.334Z,52.19
2018-03-24T12:56:50.812Z,52.53
2018-03-24T12:57:51.280Z,52.95
2018-03-24T12:58:51.758Z,53.89
2018-03-24T12:59:52.233Z,54.04
2018-03-24T13:00:52.703Z,54.71
2018-03-24T13:01:53.176Z,55.31
2018-03-24T13:02:53.650Z,56.24
2018-03-24T13:03:54.124Z,55.67
2018-03-24T13:04:54.596Z,56.02
2018-03-24T13:05:55.071Z,57.19
2018-03-24T13:06:55.543Z,58.04
2018-03-24T13:07:56.017Z,57.89
2018-03-24T13:08:56.486Z,58.28
2018-03-24T13:09:56.965Z,57.68
2018-03-24T13:10:57.439Z,58.65
2018-03-24T13:11:57.913Z,59.51
2018-03-24T13:12:58.433Z,58.44
2018-03-24T13:13:58.914Z,58.56
2018-03-24T13:14:59.332Z,58.85
2018-03-24T13:15:59.811Z,59.41
2018-03-24T13:17:00.288Z,59.41
2018-03-24T13:18:00.763Z,61.16
2018-03-24T13:19:01.233Z,61.82
2018-03-24T13:20:01.713Z,61.47
2018-03-24T13:21:02.188Z,61.96
2018-03-24T13:22:02.661Z,62.22
2018-03-24T13:23:03.140Z,61.35
2018-03-24T13:24:03.616Z,60.80
2018-03-24T13:25:04.090Z,61.14
2018-03-24T13:26:04.571Z,60.59
2018-03-24T13:27:05.046Z,60.76
2018-03-24T13:28:05.572Z,60.75
2018-03-24T13:29:05.998Z,60.75
2018-03-24T13:30:06.476Z,60.63
2018-03-24T13:31:06.951Z,60.69
2018-03-24T13:32:07.429Z,60.97
2018-03-24T13:33:07.900Z,60.94
2018-03-24T13:34:08.377Z,61.17
2018-03-24T13:35:08.854Z,60.91
2018-03-24T13:36:09.329Z,60.93
2018-03-24T13:40:11.231Z,61.18
2018-03-24T13:41:11.701Z,61.35
2018-03-24T13:42:12.181Z,61.29
2018-03-24T13:43:12.663Z,61.32
2018-03-24T13:45:13.605Z,61.37
2018-03-24T13:46:14.079Z,61.80
2018-03-24T13:47:14.549Z,61.18
2018-03-24T13:48:15.028Z,61.06
2018-03-24T13:49:15.499Z,61.15
2018-03-24T13:50:15.975Z,61.00
2018-03-24T13:51:16.449Z,60.79
2018-03-24T13:52:16.916Z,60.70
2018-03-24T13:53:17.396Z,60.64
2018-03-24T13:54:21.722Z,60.60
2018-03-24T13:55:19.957Z,60.40
2018-03-24T13:57:19.281Z,60.42
2018-03-24T13:58:21.515Z,60.67
2018-03-24T13:59:20.230Z,60.87
2018-03-24T14:01:21.171Z,60.46
2018-03-24T14:02:25.297Z,60.40
2018-03-24T14:04:22.794Z,60.27
2018-03-24T14:05:23.062Z,60.62
2018-03-24T14:06:23.586Z,60.79
2018-03-24T14:07:24.009Z,60.99
2018-03-24T14:08:24.483Z,61.07
2018-03-24T14:10:25.763Z,60.45